Mardan, Pakistan
Current Conditions -  °F | °C
As of 7:00 AM on Tuesday 21 Oct 2014 (Local Time) from OPPS Reporting Station
Haze Haze  
Wind Chill: 64°   Ceiling: Unl
Heat Index: 64°   Visibility: 2.5mi
Dew Point: 59°   Wind: 0mph
Humidity: 83%   Direction: NA
Pressure: NA   Gusts: NA
Location:  34.2°N, 72.04°E
Report Text: OPPS 210200Z 00000KT 4000 HZ SKC 18/15 Q1017.0
Loading
Personal Weather Stations






























Interactive Weather Map
Tropical Storm Tracking
New forecast layout! Learn more

10-Day Weather Forecast

Advertisements
Track Severe Weather on mobile